Aviation Digital Data Service (ADDS)

Output produced by METARs form (1818 UTC 20 January 2019)
found at http://www.aviationweather.gov/metar/data/
 
FSIA 201800Z VRB01KT 5000 +RA FEW009 FEW015CB BKN018 OVC030 23/23 Q1015 BECMG 8000 RA
TAF FSIA 201718Z 2018/2118 02012G22KT 9999 FEW009 FEW014CB 
     TEMPO 2018/2100 5000 RA FEW007 FEW014CB BKN018 OVC045 
     BECMG 2102/2104 8000 SHRA FEW012 FEW016CB BKN018 
     TEMPO 2110/2118 5000 RA FEW012 FEW018CB BKN045